Time,TemperatureF,DewpointF,PressureIn,WindDirection,WindDirectionDegrees,WindSpeedMPH,WindSpeedGustMPH,Humidity,HourlyPrecipIn,Conditions,Clouds,dailyrainin,SolarRadiationWatts/m^2,SoftwareType,DateUTC
2013-04-13 00:02:00,6.0,1.0,-100.00,NE,47,2.0,5.0,80,0.00,,,0.00,0.000000,,2013-04-13 06:02:00,
2013-04-13 00:12:00,6.0,1.0,-100.00,NE,47,2.0,5.0,80,0.00,,,0.00,0.000000,,2013-04-13 06:12:00,
2013-04-13 00:24:00,6.0,1.0,-100.00,NE,47,2.0,5.0,80,0.00,,,0.00,0.000000,,2013-04-13 06:24:00,
2013-04-13 00:34:00,6.0,1.0,-100.00,NE,47,2.0,5.0,80,0.00,,,0.00,0.000000,,2013-04-13 06:34:00,
2013-04-13 01:05:00,5.0,0.0,-100.00,NNE,15,2.0,3.0,79,0.00,,,0.00,0.000000,,2013-04-13 07:05:00,
2013-04-13 01:14:00,5.0,0.0,-100.00,NNE,15,2.0,3.0,79,0.00,,,0.00,0.000000,,2013-04-13 07:14:00,
2013-04-13 01:24:00,5.0,0.0,-100.00,NNE,15,2.0,3.0,79,0.00,,,0.00,0.000000,,2013-04-13 07:24:00,
2013-04-13 01:34:00,5.0,0.0,-100.00,NNE,15,2.0,3.0,79,0.00,,,0.00,0.000000,,2013-04-13 07:34:00,
2013-04-13 02:06:00,6.0,2.0,-100.00,ENE,71,1.0,3.0,82,0.00,,,0.00,0.000000,,2013-04-13 08:06:00,
2013-04-13 02:15:00,6.0,2.0,-100.00,ENE,71,1.0,3.0,82,0.00,,,0.00,0.000000,,2013-04-13 08:15:00,
2013-04-13 02:25:00,6.0,2.0,-100.00,ENE,71,1.0,3.0,82,0.00,,,0.00,0.000000,,2013-04-13 08:25:00,
2013-04-13 02:34:00,6.0,2.0,-100.00,ENE,71,1.0,3.0,82,0.00,,,0.00,0.000000,,2013-04-13 08:34:00,
2013-04-13 03:05:00,14.0,10.0,-100.00,NE,55,2.0,5.0,84,0.00,,,0.00,0.000000,,2013-04-13 09:05:00,
2013-04-13 03:14:00,14.0,10.0,-100.00,NE,55,2.0,5.0,84,0.00,,,0.00,0.000000,,2013-04-13 09:14:00,
2013-04-13 03:24:00,14.0,10.0,-100.00,NE,55,2.0,5.0,84,0.00,,,0.00,0.000000,,2013-04-13 09:24:00,
2013-04-13 03:36:00,15.0,12.0,-100.00,East,91,1.0,3.0,87,0.00,,,0.00,0.000000,,2013-04-13 09:36:00,
2013-04-13 04:05:00,15.0,12.0,-100.00,East,91,1.0,3.0,87,0.00,,,0.00,0.000000,,2013-04-13 10:05:00,
2013-04-13 04:15:00,15.0,12.0,-100.00,East,91,1.0,3.0,87,0.00,,,0.00,0.000000,,2013-04-13 10:15:00,
2013-04-13 04:24:00,15.0,12.0,-100.00,East,91,1.0,3.0,87,0.00,,,0.00,0.000000,,2013-04-13 10:24:00,
2013-04-13 05:06:00,10.0,6.0,-100.00,NNE,19,2.0,3.0,83,0.00,,,0.00,0.000000,,2013-04-13 11:06:00,
2013-04-13 05:13:00,10.0,6.0,-100.00,NNE,19,2.0,3.0,83,0.00,,,0.00,0.000000,,2013-04-13 11:13:00,
2013-04-13 05:24:00,10.0,6.0,-100.00,NNE,19,2.0,3.0,83,0.00,,,0.00,0.000000,,2013-04-13 11:24:00,
2013-04-13 05:34:00,10.0,6.0,-100.00,NNE,19,2.0,3.0,83,0.00,,,0.00,0.000000,,2013-04-13 11:34:00,
2013-04-13 06:08:00,15.0,12.0,-100.00,SE,133,1.0,3.0,87,0.00,,,0.00,0.000000,,2013-04-13 12:08:00,
2013-04-13 06:15:00,15.0,12.0,-100.00,SE,133,1.0,3.0,87,0.00,,,0.00,0.000000,,2013-04-13 12:15:00,
2013-04-13 06:35:00,15.0,12.0,-100.00,SE,133,1.0,3.0,87,0.00,,,0.00,0.000000,,2013-04-13 12:35:00,
2013-04-13 07:06:00,22.0,18.0,-100.00,SSE,153,5.0,8.0,86,0.00,,,0.00,5.000000,,2013-04-13 13:06:00,
2013-04-13 07:15:00,22.0,18.0,-100.00,SSE,153,5.0,8.0,86,0.00,,,0.00,5.000000,,2013-04-13 13:15:00,
2013-04-13 07:27:00,22.0,18.0,-100.00,SSE,153,5.0,8.0,86,0.00,,,0.00,5.000000,,2013-04-13 13:27:00,
2013-04-13 07:34:00,22.0,18.0,-100.00,SSE,153,5.0,8.0,86,0.00,,,0.00,5.000000,,2013-04-13 13:34:00,
2013-04-13 08:14:00,25.0,22.0,-100.00,SSE,159,4.0,12.0,88,0.00,,,0.00,53.000000,,2013-04-13 14:14:00,
2013-04-13 08:23:00,25.0,22.0,-100.00,SSE,159,4.0,12.0,88,0.00,,,0.00,53.000000,,2013-04-13 14:23:00,
2013-04-13 09:05:00,31.0,25.0,-100.00,SE,140,2.0,7.0,77,0.00,,,0.00,167.000000,,2013-04-13 15:05:00,
2013-04-13 09:14:00,31.0,25.0,-100.00,SE,140,2.0,7.0,77,0.00,,,0.00,167.000000,,2013-04-13 15:14:00,
2013-04-13 09:28:00,31.0,25.0,-100.00,SE,140,2.0,7.0,77,0.00,,,0.00,167.000000,,2013-04-13 15:28:00,
2013-04-13 09:35:00,31.0,25.0,-100.00,SE,140,2.0,7.0,77,0.00,,,0.00,167.000000,,2013-04-13 15:35:00,
2013-04-13 10:15:00,38.0,22.0,-100.00,South,181,4.0,7.0,53,0.00,,,0.00,322.000000,,2013-04-13 16:15:00,
2013-04-13 10:24:00,38.0,22.0,-100.00,South,181,4.0,7.0,53,0.00,,,0.00,322.000000,,2013-04-13 16:24:00,
2013-04-13 10:35:00,38.0,22.0,-100.00,South,181,4.0,7.0,53,0.00,,,0.00,322.000000,,2013-04-13 16:35:00,
2013-04-13 10:36:00,45.0,20.0,-100.00,South,186,5.0,10.0,36,0.00,,,0.00,596.000000,,2013-04-13 16:36:00,
2013-04-13 11:07:00,45.0,20.0,-100.00,South,186,5.0,10.0,36,0.00,,,0.00,596.000000,,2013-04-13 17:07:00,
2013-04-13 11:20:00,45.0,20.0,-100.00,South,186,5.0,10.0,36,0.00,,,0.00,596.000000,,2013-04-13 17:20:00,
2013-04-13 12:06:00,44.0,20.0,-100.00,South,186,6.0,14.0,38,0.00,,,0.00,705.000000,,2013-04-13 18:06:00,
2013-04-13 12:15:00,44.0,20.0,-100.00,South,186,6.0,14.0,38,0.00,,,0.00,705.000000,,2013-04-13 18:15:00,
2013-04-13 12:24:00,44.0,20.0,-100.00,South,186,6.0,14.0,38,0.00,,,0.00,705.000000,,2013-04-13 18:24:00,
2013-04-13 12:32:00,44.0,20.0,-100.00,South,186,6.0,14.0,38,0.00,,,0.00,705.000000,,2013-04-13 18:32:00,
2013-04-13 13:03:00,43.0,22.0,-100.00,SSW,192,7.0,15.0,42,0.00,,,0.00,704.000000,,2013-04-13 19:03:00,
2013-04-13 13:12:00,43.0,22.0,-100.00,SSW,192,7.0,15.0,42,0.00,,,0.00,704.000000,,2013-04-13 19:12:00,
2013-04-13 13:22:00,43.0,22.0,-100.00,SSW,192,7.0,15.0,42,0.00,,,0.00,704.000000,,2013-04-13 19:22:00,
2013-04-13 13:32:00,43.0,22.0,-100.00,SSW,192,7.0,15.0,42,0.00,,,0.00,704.000000,,2013-04-13 19:32:00,
2013-04-13 14:02:00,43.0,25.0,-100.00,SSW,210,7.0,17.0,48,0.00,,,0.00,702.000000,,2013-04-13 20:02:00,
2013-04-13 14:12:00,43.0,25.0,-100.00,SSW,210,7.0,17.0,48,0.00,,,0.00,702.000000,,2013-04-13 20:12:00,
2013-04-13 14:22:00,43.0,25.0,-100.00,SSW,210,7.0,17.0,48,0.00,,,0.00,702.000000,,2013-04-13 20:22:00,
2013-04-13 14:32:00,43.0,25.0,-100.00,SSW,210,7.0,17.0,48,0.00,,,0.00,702.000000,,2013-04-13 20:32:00,
2013-04-13 15:02:00,42.0,29.0,-100.00,SSW,206,5.0,16.0,59,0.00,,,0.00,510.000000,,2013-04-13 21:02:00,
2013-04-13 15:12:00,42.0,29.0,-100.00,SSW,206,5.0,16.0,59,0.00,,,0.00,510.000000,,2013-04-13 21:12:00,
2013-04-13 15:22:00,42.0,29.0,-100.00,SSW,206,5.0,16.0,59,0.00,,,0.00,510.000000,,2013-04-13 21:22:00,
2013-04-13 15:32:00,42.0,29.0,-100.00,SSW,206,5.0,16.0,59,0.00,,,0.00,510.000000,,2013-04-13 21:32:00,
2013-04-13 16:03:00,44.0,30.0,-100.00,SSW,203,5.0,13.0,58,0.00,,,0.00,583.000000,,2013-04-13 22:03:00,
2013-04-13 16:12:00,44.0,30.0,-100.00,SSW,203,5.0,13.0,58,0.00,,,0.00,583.000000,,2013-04-13 22:12:00,
2013-04-13 16:22:00,44.0,30.0,-100.00,SSW,203,5.0,13.0,58,0.00,,,0.00,583.000000,,2013-04-13 22:22:00,
2013-04-13 16:33:00,44.0,30.0,-100.00,SSW,203,5.0,13.0,58,0.00,,,0.00,583.000000,,2013-04-13 22:33:00,
2013-04-13 17:02:00,42.0,29.0,-100.00,SSW,198,4.0,12.0,60,0.00,,,0.00,266.000000,,2013-04-13 23:02:00,
2013-04-13 17:12:00,42.0,29.0,-100.00,SSW,198,4.0,12.0,60,0.00,,,0.00,266.000000,,2013-04-13 23:12:00,
2013-04-13 17:22:00,42.0,29.0,-100.00,SSW,198,4.0,12.0,60,0.00,,,0.00,266.000000,,2013-04-13 23:22:00,
2013-04-13 17:32:00,42.0,29.0,-100.00,SSW,198,4.0,12.0,60,0.00,,,0.00,266.000000,,2013-04-13 23:32:00,
2013-04-13 18:02:00,37.0,33.0,-100.00,South,180,4.0,15.0,86,0.01,,,0.01,112.000000,,2013-04-14 00:02:00,
2013-04-13 18:12:00,37.0,33.0,-100.00,South,180,4.0,15.0,86,0.01,,,0.01,112.000000,,2013-04-14 00:12:00,
2013-04-13 18:22:00,37.0,33.0,-100.00,South,180,4.0,15.0,86,0.01,,,0.01,112.000000,,2013-04-14 00:22:00,
2013-04-13 18:32:00,37.0,33.0,-100.00,South,180,4.0,15.0,86,0.01,,,0.01,112.000000,,2013-04-14 00:32:00,
2013-04-13 19:02:00,36.0,32.0,-100.00,South,183,3.0,12.0,86,0.01,,,0.02,59.000000,,2013-04-14 01:02:00,
2013-04-13 19:12:00,36.0,32.0,-100.00,South,183,3.0,12.0,86,0.01,,,0.02,59.000000,,2013-04-14 01:12:00,
2013-04-13 19:22:00,36.0,32.0,-100.00,South,183,3.0,12.0,86,0.01,,,0.02,59.000000,,2013-04-14 01:22:00,
2013-04-13 19:32:00,36.0,32.0,-100.00,South,183,3.0,12.0,86,0.01,,,0.02,59.000000,,2013-04-14 01:32:00,
2013-04-13 20:02:00,37.0,30.0,-100.00,South,189,5.0,12.0,75,0.00,,,0.02,17.000000,,2013-04-14 02:02:00,
2013-04-13 20:12:00,37.0,30.0,-100.00,South,189,5.0,12.0,75,0.00,,,0.02,17.000000,,2013-04-14 02:12:00,
2013-04-13 20:22:00,37.0,30.0,-100.00,South,189,5.0,12.0,75,0.00,,,0.02,17.000000,,2013-04-14 02:22:00,
2013-04-13 20:32:00,37.0,30.0,-100.00,South,189,5.0,12.0,75,0.00,,,0.02,17.000000,,2013-04-14 02:32:00,
2013-04-13 21:02:00,36.0,32.0,-100.00,SW,216,8.0,15.0,86,0.02,,,0.04,1.000000,,2013-04-14 03:02:00,
2013-04-13 21:12:00,36.0,32.0,-100.00,SW,216,8.0,15.0,86,0.02,,,0.04,1.000000,,2013-04-14 03:12:00,
2013-04-13 21:22:00,36.0,32.0,-100.00,SW,216,8.0,15.0,86,0.02,,,0.04,1.000000,,2013-04-14 03:22:00,
2013-04-13 21:33:00,36.0,32.0,-100.00,SW,216,8.0,15.0,86,0.02,,,0.04,1.000000,,2013-04-14 03:33:00,
2013-04-13 22:02:00,35.0,33.0,-100.00,SSW,210,7.0,13.0,92,0.01,,,0.05,0.000000,,2013-04-14 04:02:00,
2013-04-13 22:12:00,35.0,33.0,-100.00,SSW,210,7.0,13.0,92,0.01,,,0.05,0.000000,,2013-04-14 04:12:00,
2013-04-13 22:23:00,35.0,33.0,-100.00,SSW,210,7.0,13.0,92,0.01,,,0.05,0.000000,,2013-04-14 04:23:00,
2013-04-13 22:32:00,35.0,33.0,-100.00,SSW,210,7.0,13.0,92,0.01,,,0.05,0.000000,,2013-04-14 04:32:00,
2013-04-13 23:03:00,35.0,32.0,-100.00,SSW,202,7.0,14.0,90,0.00,,,0.05,0.000000,,2013-04-14 05:03:00,
2013-04-13 23:12:00,35.0,32.0,-100.00,SSW,202,7.0,14.0,90,0.00,,,0.05,0.000000,,2013-04-14 05:12:00,
2013-04-13 23:22:00,35.0,32.0,-100.00,SSW,202,7.0,14.0,90,0.00,,,0.05,0.000000,,2013-04-14 05:22:00,
2013-04-13 23:32:00,35.0,32.0,-100.00,SSW,202,7.0,14.0,90,0.00,,,0.05,0.000000,,2013-04-14 05:32:00,